sensor_id;sensor_type;location;lat;lon;timestamp;P1;durP1;ratioP1;P2;durP2;ratioP2
60873;SDS011;46715;40.642;-7.920;2024-01-30T00:01:35;66.20;;;36.50;;
60873;SDS011;46715;40.642;-7.920;2024-01-30T00:03:35;72.60;;;39.30;;
60873;SDS011;46715;40.642;-7.920;2024-01-30T00:05:36;64.77;;;37.53;;
60873;SDS011;46715;40.642;-7.920;2024-01-30T00:07:37;76.33;;;38.20;;
60873;SDS011;46715;40.642;-7.920;2024-01-30T00:09:38;66.63;;;36.77;;
60873;SDS011;46715;40.642;-7.920;2024-01-30T00:11:42;67.80;;;36.45;;
60873;SDS011;46715;40.642;-7.920;2024-01-30T00:13:43;72.90;;;37.97;;
60873;SDS011;46715;40.642;-7.920;2024-01-30T00:15:43;58.80;;;31.07;;
60873;SDS011;46715;40.642;-7.920;2024-01-30T00:17:44;55.47;;;32.03;;
60873;SDS011;46715;40.642;-7.920;2024-01-30T00:19:45;53.67;;;29.17;;
60873;SDS011;46715;40.642;-7.920;2024-01-30T00:21:46;65.57;;;34.13;;
60873;SDS011;46715;40.642;-7.920;2024-01-30T00:23:46;53.37;;;30.57;;
60873;SDS011;46715;40.642;-7.920;2024-01-30T00:25:47;49.37;;;31.27;;
60873;SDS011;46715;40.642;-7.920;2024-01-30T00:27:48;67.27;;;33.57;;
60873;SDS011;46715;40.642;-7.920;2024-01-30T00:29:49;67.63;;;34.70;;
60873;SDS011;46715;40.642;-7.920;2024-01-30T00:31:50;67.70;;;35.33;;
60873;SDS011;46715;40.642;-7.920;2024-01-30T00:33:50;60.60;;;32.87;;
60873;SDS011;46715;40.642;-7.920;2024-01-30T00:35:51;58.27;;;33.33;;
60873;SDS011;46715;40.642;-7.920;2024-01-30T00:37:52;58.00;;;33.83;;
60873;SDS011;46715;40.642;-7.920;2024-01-30T00:39:53;60.37;;;37.00;;
60873;SDS011;46715;40.642;-7.920;2024-01-30T00:41:54;54.07;;;31.63;;
60873;SDS011;46715;40.642;-7.920;2024-01-30T00:43:54;63.00;;;35.13;;
60873;SDS011;46715;40.642;-7.920;2024-01-30T00:45:55;52.07;;;31.67;;
60873;SDS011;46715;40.642;-7.920;2024-01-30T00:47:56;46.23;;;30.13;;
60873;SDS011;46715;40.642;-7.920;2024-01-30T00:49:57;54.47;;;32.77;;
60873;SDS011;46715;40.642;-7.920;2024-01-30T00:51:57;59.37;;;36.33;;
60873;SDS011;46715;40.642;-7.920;2024-01-30T00:53:58;70.87;;;34.73;;
60873;SDS011;46715;40.642;-7.920;2024-01-30T00:55:59;61.00;;;35.20;;
60873;SDS011;46715;40.642;-7.920;2024-01-30T00:58:00;68.67;;;34.37;;
60873;SDS011;46715;40.642;-7.920;2024-01-30T01:00:01;64.63;;;35.50;;
60873;SDS011;46715;40.642;-7.920;2024-01-30T01:02:01;66.67;;;39.03;;
60873;SDS011;46715;40.642;-7.920;2024-01-30T01:04:02;71.83;;;38.10;;
60873;SDS011;46715;40.642;-7.920;2024-01-30T01:06:03;62.03;;;34.30;;
60873;SDS011;46715;40.642;-7.920;2024-01-30T01:08:04;57.97;;;34.28;;
60873;SDS011;46715;40.642;-7.920;2024-01-30T01:10:05;63.10;;;33.37;;
60873;SDS011;46715;40.642;-7.920;2024-01-30T01:12:07;54.95;;;32.40;;
60873;SDS011;46715;40.642;-7.920;2024-01-30T01:14:07;51.33;;;28.90;;
60873;SDS011;46715;40.642;-7.920;2024-01-30T01:16:08;50.70;;;29.20;;
60873;SDS011;46715;40.642;-7.920;2024-01-30T01:18:09;52.90;;;33.50;;
60873;SDS011;46715;40.642;-7.920;2024-01-30T01:20:13;56.63;;;33.78;;
60873;SDS011;46715;40.642;-7.920;2024-01-30T01:22:15;60.60;;;35.27;;
60873;SDS011;46715;40.642;-7.920;2024-01-30T01:24:17;58.05;;;34.00;;
60873;SDS011;46715;40.642;-7.920;2024-01-30T01:26:18;53.37;;;32.77;;
60873;SDS011;46715;40.642;-7.920;2024-01-30T01:28:19;59.70;;;33.83;;
60873;SDS011;46715;40.642;-7.920;2024-01-30T01:30:19;48.10;;;30.87;;
60873;SDS011;46715;40.642;-7.920;2024-01-30T01:32:28;47.78;;;31.13;;
60873;SDS011;46715;40.642;-7.920;2024-01-30T01:34:29;47.47;;;28.80;;
60873;SDS011;46715;40.642;-7.920;2024-01-30T01:36:30;44.75;;;29.92;;
60873;SDS011;46715;40.642;-7.920;2024-01-30T01:38:31;53.87;;;33.20;;
60873;SDS011;46715;40.642;-7.920;2024-01-30T01:40:32;54.17;;;33.07;;
60873;SDS011;46715;40.642;-7.920;2024-01-30T01:42:33;61.07;;;34.10;;
60873;SDS011;46715;40.642;-7.920;2024-01-30T01:44:34;66.67;;;34.00;;
60873;SDS011;46715;40.642;-7.920;2024-01-30T01:46:35;62.23;;;33.60;;
60873;SDS011;46715;40.642;-7.920;2024-01-30T01:48:37;57.42;;;33.60;;
60873;SDS011;46715;40.642;-7.920;2024-01-30T01:50:40;50.92;;;30.88;;
60873;SDS011;46715;40.642;-7.920;2024-01-30T01:52:42;49.08;;;30.80;;
60873;SDS011;46715;40.642;-7.920;2024-01-30T01:54:43;41.47;;;28.43;;
60873;SDS011;46715;40.642;-7.920;2024-01-30T01:56:44;51.15;;;30.33;;
60873;SDS011;46715;40.642;-7.920;2024-01-30T01:58:45;49.77;;;30.33;;
60873;SDS011;46715;40.642;-7.920;2024-01-30T02:00:48;53.47;;;31.85;;
60873;SDS011;46715;40.642;-7.920;2024-01-30T02:02:49;54.35;;;31.98;;
60873;SDS011;46715;40.642;-7.920;2024-01-30T02:04:52;51.97;;;31.83;;
60873;SDS011;46715;40.642;-7.920;2024-01-30T02:06:52;62.87;;;32.57;;
60873;SDS011;46715;40.642;-7.920;2024-01-30T02:08:54;52.53;;;31.53;;
60873;SDS011;46715;40.642;-7.920;2024-01-30T02:10:55;52.67;;;31.05;;
60873;SDS011;46715;40.642;-7.920;2024-01-30T02:12:56;45.03;;;30.03;;
60873;SDS011;46715;40.642;-7.920;2024-01-30T02:14:56;50.47;;;30.57;;
60873;SDS011;46715;40.642;-7.920;2024-01-30T02:16:57;52.43;;;30.23;;
60873;SDS011;46715;40.642;-7.920;2024-01-30T02:18:58;56.60;;;32.37;;
60873;SDS011;46715;40.642;-7.920;2024-01-30T02:20:59;62.63;;;33.87;;
60873;SDS011;46715;40.642;-7.920;2024-01-30T02:23:04;61.25;;;33.33;;
60873;SDS011;46715;40.642;-7.920;2024-01-30T02:25:06;55.88;;;32.78;;
60873;SDS011;46715;40.642;-7.920;2024-01-30T02:27:07;48.50;;;30.70;;
60873;SDS011;46715;40.642;-7.920;2024-01-30T02:29:08;60.07;;;32.20;;
60873;SDS011;46715;40.642;-7.920;2024-01-30T02:31:08;51.70;;;32.47;;
60873;SDS011;46715;40.642;-7.920;2024-01-30T02:33:09;52.17;;;30.93;;
60873;SDS011;46715;40.642;-7.920;2024-01-30T02:35:10;56.63;;;32.57;;
60873;SDS011;46715;40.642;-7.920;2024-01-30T02:37:11;53.57;;;32.43;;
60873;SDS011;46715;40.642;-7.920;2024-01-30T02:39:11;54.67;;;30.43;;
60873;SDS011;46715;40.642;-7.920;2024-01-30T02:41:12;49.37;;;30.20;;
60873;SDS011;46715;40.642;-7.920;2024-01-30T02:43:13;50.57;;;29.50;;
60873;SDS011;46715;40.642;-7.920;2024-01-30T02:45:14;47.83;;;30.93;;
60873;SDS011;46715;40.642;-7.920;2024-01-30T02:47:14;43.13;;;27.67;;
60873;SDS011;46715;40.642;-7.920;2024-01-30T02:49:15;51.17;;;29.27;;
60873;SDS011;46715;40.642;-7.920;2024-01-30T02:51:16;57.30;;;31.73;;
60873;SDS011;46715;40.642;-7.920;2024-01-30T02:53:17;56.30;;;31.70;;
60873;SDS011;46715;40.642;-7.920;2024-01-30T02:55:18;53.20;;;29.57;;
60873;SDS011;46715;40.642;-7.920;2024-01-30T02:57:19;44.43;;;28.03;;
60873;SDS011;46715;40.642;-7.920;2024-01-30T02:59:19;46.53;;;27.83;;
60873;SDS011;46715;40.642;-7.920;2024-01-30T03:01:20;34.87;;;23.73;;
60873;SDS011;46715;40.642;-7.920;2024-01-30T03:03:21;40.60;;;24.23;;
60873;SDS011;46715;40.642;-7.920;2024-01-30T03:05:22;44.60;;;27.03;;
60873;SDS011;46715;40.642;-7.920;2024-01-30T03:07:22;49.00;;;25.20;;
60873;SDS011;46715;40.642;-7.920;2024-01-30T03:09:23;42.73;;;26.23;;
60873;SDS011;46715;40.642;-7.920;2024-01-30T03:11:24;43.63;;;25.13;;
60873;SDS011;46715;40.642;-7.920;2024-01-30T03:13:25;39.87;;;23.27;;
60873;SDS011;46715;40.642;-7.920;2024-01-30T03:15:25;36.90;;;25.13;;
60873;SDS011;46715;40.642;-7.920;2024-01-30T03:17:26;42.50;;;23.93;;
60873;SDS011;46715;40.642;-7.920;2024-01-30T03:19:27;43.43;;;24.13;;
60873;SDS011;46715;40.642;-7.920;2024-01-30T03:21:28;41.43;;;23.93;;
60873;SDS011;46715;40.642;-7.920;2024-01-30T03:23:29;35.17;;;23.40;;
60873;SDS011;46715;40.642;-7.920;2024-01-30T03:25:31;44.47;;;25.00;;
60873;SDS011;46715;40.642;-7.920;2024-01-30T03:27:32;41.13;;;23.53;;
60873;SDS011;46715;40.642;-7.920;2024-01-30T03:29:33;39.37;;;23.77;;
60873;SDS011;46715;40.642;-7.920;2024-01-30T03:31:33;36.90;;;24.13;;
60873;SDS011;46715;40.642;-7.920;2024-01-30T03:33:34;37.40;;;23.07;;
60873;SDS011;46715;40.642;-7.920;2024-01-30T03:35:36;36.50;;;23.77;;
60873;SDS011;46715;40.642;-7.920;2024-01-30T03:37:41;45.38;;;24.83;;
60873;SDS011;46715;40.642;-7.920;2024-01-30T03:39:42;38.43;;;23.77;;
60873;SDS011;46715;40.642;-7.920;2024-01-30T03:41:42;38.60;;;23.87;;
60873;SDS011;46715;40.642;-7.920;2024-01-30T03:45:45;38.10;;;22.38;;
60873;SDS011;46715;40.642;-7.920;2024-01-30T03:47:46;36.63;;;21.10;;
60873;SDS011;46715;40.642;-7.920;2024-01-30T03:49:46;28.83;;;20.13;;
60873;SDS011;46715;40.642;-7.920;2024-01-30T03:51:47;29.33;;;20.33;;
60873;SDS011;46715;40.642;-7.920;2024-01-30T03:53:48;32.63;;;21.07;;
60873;SDS011;46715;40.642;-7.920;2024-01-30T03:55:49;35.90;;;21.70;;
60873;SDS011;46715;40.642;-7.920;2024-01-30T03:57:50;33.33;;;20.87;;
60873;SDS011;46715;40.642;-7.920;2024-01-30T03:59:50;34.67;;;21.70;;
60873;SDS011;46715;40.642;-7.920;2024-01-30T04:01:51;39.07;;;22.13;;
60873;SDS011;46715;40.642;-7.920;2024-01-30T04:03:52;37.30;;;22.83;;
60873;SDS011;46715;40.642;-7.920;2024-01-30T04:05:52;32.63;;;22.23;;
60873;SDS011;46715;40.642;-7.920;2024-01-30T04:07:53;35.50;;;23.00;;
60873;SDS011;46715;40.642;-7.920;2024-01-30T04:09:54;37.00;;;22.90;;
60873;SDS011;46715;40.642;-7.920;2024-01-30T04:11:55;35.23;;;21.73;;
60873;SDS011;46715;40.642;-7.920;2024-01-30T04:13:56;31.93;;;21.87;;
60873;SDS011;46715;40.642;-7.920;2024-01-30T04:15:56;35.63;;;22.13;;
60873;SDS011;46715;40.642;-7.920;2024-01-30T04:17:59;36.13;;;21.23;;
60873;SDS011;46715;40.642;-7.920;2024-01-30T04:19:59;32.70;;;21.27;;
60873;SDS011;46715;40.642;-7.920;2024-01-30T04:22:00;36.03;;;21.10;;
60873;SDS011;46715;40.642;-7.920;2024-01-30T04:24:01;29.43;;;19.83;;
60873;SDS011;46715;40.642;-7.920;2024-01-30T04:26:02;28.43;;;20.87;;
60873;SDS011;46715;40.642;-7.920;2024-01-30T04:28:03;27.50;;;17.85;;
60873;SDS011;46715;40.642;-7.920;2024-01-30T04:30:04;24.38;;;18.25;;
60873;SDS011;46715;40.642;-7.920;2024-01-30T04:32:06;27.67;;;18.85;;
60873;SDS011;46715;40.642;-7.920;2024-01-30T04:34:07;27.77;;;19.23;;
60873;SDS011;46715;40.642;-7.920;2024-01-30T04:36:08;30.50;;;20.23;;
60873;SDS011;46715;40.642;-7.920;2024-01-30T04:38:12;29.25;;;19.95;;
60873;SDS011;46715;40.642;-7.920;2024-01-30T04:40:14;32.67;;;20.85;;
60873;SDS011;46715;40.642;-7.920;2024-01-30T04:42:15;31.87;;;21.27;;
60873;SDS011;46715;40.642;-7.920;2024-01-30T04:44:16;32.67;;;19.65;;
60873;SDS011;46715;40.642;-7.920;2024-01-30T04:46:17;34.80;;;21.37;;
60873;SDS011;46715;40.642;-7.920;2024-01-30T04:48:18;32.00;;;20.93;;
60873;SDS011;46715;40.642;-7.920;2024-01-30T04:50:18;33.23;;;21.00;;
60873;SDS011;46715;40.642;-7.920;2024-01-30T04:52:19;30.43;;;19.37;;
60873;SDS011;46715;40.642;-7.920;2024-01-30T04:54:20;26.23;;;18.25;;
60873;SDS011;46715;40.642;-7.920;2024-01-30T04:56:21;28.17;;;18.93;;
60873;SDS011;46715;40.642;-7.920;2024-01-30T04:58:22;30.47;;;19.33;;
60873;SDS011;46715;40.642;-7.920;2024-01-30T05:00:22;30.47;;;18.43;;
60873;SDS011;46715;40.642;-7.920;2024-01-30T05:02:23;40.17;;;19.13;;
60873;SDS011;46715;40.642;-7.920;2024-01-30T05:04:24;29.20;;;18.20;;
60873;SDS011;46715;40.642;-7.920;2024-01-30T05:06:25;26.97;;;18.93;;
60873;SDS011;46715;40.642;-7.920;2024-01-30T05:08:26;30.08;;;18.33;;
60873;SDS011;46715;40.642;-7.920;2024-01-30T05:10:27;29.97;;;19.90;;
60873;SDS011;46715;40.642;-7.920;2024-01-30T05:12:29;28.13;;;18.70;;
60873;SDS011;46715;40.642;-7.920;2024-01-30T05:14:29;28.17;;;18.97;;
60873;SDS011;46715;40.642;-7.920;2024-01-30T05:16:30;26.90;;;18.53;;
60873;SDS011;46715;40.642;-7.920;2024-01-30T05:18:31;28.55;;;18.70;;
60873;SDS011;46715;40.642;-7.920;2024-01-30T05:20:32;32.73;;;19.10;;
60873;SDS011;46715;40.642;-7.920;2024-01-30T05:22:33;27.27;;;18.97;;
60873;SDS011;46715;40.642;-7.920;2024-01-30T05:24:35;28.67;;;18.60;;
60873;SDS011;46715;40.642;-7.920;2024-01-30T05:26:36;29.00;;;18.38;;
60873;SDS011;46715;40.642;-7.920;2024-01-30T05:28:37;29.00;;;18.80;;
60873;SDS011;46715;40.642;-7.920;2024-01-30T05:30:38;29.60;;;19.07;;
60873;SDS011;46715;40.642;-7.920;2024-01-30T05:32:39;27.03;;;18.83;;
60873;SDS011;46715;40.642;-7.920;2024-01-30T05:34:39;26.93;;;18.80;;
60873;SDS011;46715;40.642;-7.920;2024-01-30T05:36:40;30.40;;;19.83;;
60873;SDS011;46715;40.642;-7.920;2024-01-30T05:38:41;31.77;;;20.40;;
60873;SDS011;46715;40.642;-7.920;2024-01-30T05:40:42;24.30;;;18.13;;
60873;SDS011;46715;40.642;-7.920;2024-01-30T05:42:43;31.43;;;19.50;;
60873;SDS011;46715;40.642;-7.920;2024-01-30T05:44:44;38.97;;;22.20;;
60873;SDS011;46715;40.642;-7.920;2024-01-30T05:46:44;32.37;;;21.20;;
60873;SDS011;46715;40.642;-7.920;2024-01-30T05:48:45;33.83;;;22.03;;
60873;SDS011;46715;40.642;-7.920;2024-01-30T05:50:46;37.47;;;21.65;;
60873;SDS011;46715;40.642;-7.920;2024-01-30T05:52:47;35.57;;;24.27;;
60873;SDS011;46715;40.642;-7.920;2024-01-30T05:54:51;28.27;;;19.55;;
60873;SDS011;46715;40.642;-7.920;2024-01-30T05:56:52;25.97;;;18.57;;
60873;SDS011;46715;40.642;-7.920;2024-01-30T05:58:52;21.00;;;15.87;;
60873;SDS011;46715;40.642;-7.920;2024-01-30T06:00:53;30.17;;;18.47;;
60873;SDS011;46715;40.642;-7.920;2024-01-30T06:02:54;27.37;;;18.30;;
60873;SDS011;46715;40.642;-7.920;2024-01-30T06:04:55;24.23;;;17.40;;
60873;SDS011;46715;40.642;-7.920;2024-01-30T06:06:55;27.10;;;17.43;;
60873;SDS011;46715;40.642;-7.920;2024-01-30T06:08:56;26.50;;;18.03;;
60873;SDS011;46715;40.642;-7.920;2024-01-30T06:10:57;28.20;;;17.93;;
60873;SDS011;46715;40.642;-7.920;2024-01-30T06:12:58;24.80;;;17.40;;
60873;SDS011;46715;40.642;-7.920;2024-01-30T06:14:58;23.93;;;16.47;;
60873;SDS011;46715;40.642;-7.920;2024-01-30T06:16:59;22.70;;;15.47;;
60873;SDS011;46715;40.642;-7.920;2024-01-30T06:19:00;24.03;;;15.37;;
60873;SDS011;46715;40.642;-7.920;2024-01-30T06:21:01;22.23;;;16.40;;
60873;SDS011;46715;40.642;-7.920;2024-01-30T06:23:02;26.63;;;17.33;;
60873;SDS011;46715;40.642;-7.920;2024-01-30T06:25:03;24.57;;;18.27;;
60873;SDS011;46715;40.642;-7.920;2024-01-30T06:27:04;24.10;;;17.65;;
60873;SDS011;46715;40.642;-7.920;2024-01-30T06:29:04;28.07;;;18.03;;
60873;SDS011;46715;40.642;-7.920;2024-01-30T06:31:05;23.87;;;17.20;;
60873;SDS011;46715;40.642;-7.920;2024-01-30T06:33:06;33.90;;;17.97;;
60873;SDS011;46715;40.642;-7.920;2024-01-30T06:35:07;27.33;;;17.90;;
60873;SDS011;46715;40.642;-7.920;2024-01-30T06:37:08;26.23;;;17.38;;
60873;SDS011;46715;40.642;-7.920;2024-01-30T06:39:09;24.30;;;15.60;;
60873;SDS011;46715;40.642;-7.920;2024-01-30T06:41:10;26.60;;;17.93;;
60873;SDS011;46715;40.642;-7.920;2024-01-30T06:43:11;24.47;;;16.63;;
60873;SDS011;46715;40.642;-7.920;2024-01-30T06:45:11;25.17;;;16.17;;
60873;SDS011;46715;40.642;-7.920;2024-01-30T06:47:12;25.10;;;16.27;;
60873;SDS011;46715;40.642;-7.920;2024-01-30T06:49:13;21.30;;;15.70;;
60873;SDS011;46715;40.642;-7.920;2024-01-30T06:51:14;24.13;;;16.00;;
60873;SDS011;46715;40.642;-7.920;2024-01-30T06:53:15;23.33;;;16.17;;
60873;SDS011;46715;40.642;-7.920;2024-01-30T06:55:15;22.27;;;16.27;;
60873;SDS011;46715;40.642;-7.920;2024-01-30T06:57:16;25.90;;;16.37;;
60873;SDS011;46715;40.642;-7.920;2024-01-30T06:59:18;25.55;;;15.25;;
60873;SDS011;46715;40.642;-7.920;2024-01-30T07:01:18;22.23;;;15.43;;
60873;SDS011;46715;40.642;-7.920;2024-01-30T07:03:19;20.40;;;14.63;;
60873;SDS011;46715;40.642;-7.920;2024-01-30T07:05:20;26.30;;;15.93;;
60873;SDS011;46715;40.642;-7.920;2024-01-30T07:07:22;24.73;;;15.13;;
60873;SDS011;46715;40.642;-7.920;2024-01-30T07:09:23;23.97;;;14.90;;
60873;SDS011;46715;40.642;-7.920;2024-01-30T07:11:23;22.10;;;13.33;;
60873;SDS011;46715;40.642;-7.920;2024-01-30T07:13:24;25.02;;;14.57;;
60873;SDS011;46715;40.642;-7.920;2024-01-30T07:15:25;20.37;;;13.40;;
60873;SDS011;46715;40.642;-7.920;2024-01-30T07:17:26;19.63;;;14.03;;
60873;SDS011;46715;40.642;-7.920;2024-01-30T07:19:27;20.48;;;13.88;;
60873;SDS011;46715;40.642;-7.920;2024-01-30T07:21:28;24.03;;;13.20;;
60873;SDS011;46715;40.642;-7.920;2024-01-30T07:23:29;21.50;;;13.07;;
60873;SDS011;46715;40.642;-7.920;2024-01-30T07:25:30;21.80;;;14.33;;
60873;SDS011;46715;40.642;-7.920;2024-01-30T07:27:31;20.70;;;13.63;;
60873;SDS011;46715;40.642;-7.920;2024-01-30T07:29:31;23.90;;;13.67;;
60873;SDS011;46715;40.642;-7.920;2024-01-30T07:31:32;19.03;;;12.37;;
60873;SDS011;46715;40.642;-7.920;2024-01-30T07:33:33;24.47;;;14.97;;
60873;SDS011;46715;40.642;-7.920;2024-01-30T07:35:34;25.10;;;14.97;;
60873;SDS011;46715;40.642;-7.920;2024-01-30T07:37:35;23.10;;;15.52;;
60873;SDS011;46715;40.642;-7.920;2024-01-30T07:39:36;21.57;;;14.90;;
60873;SDS011;46715;40.642;-7.920;2024-01-30T07:41:37;22.97;;;13.27;;
60873;SDS011;46715;40.642;-7.920;2024-01-30T07:43:40;21.30;;;14.43;;
60873;SDS011;46715;40.642;-7.920;2024-01-30T07:45:41;22.00;;;14.23;;
60873;SDS011;46715;40.642;-7.920;2024-01-30T07:47:42;17.30;;;13.43;;
60873;SDS011;46715;40.642;-7.920;2024-01-30T07:49:44;21.15;;;12.32;;
60873;SDS011;46715;40.642;-7.920;2024-01-30T07:51:45;19.87;;;12.77;;
60873;SDS011;46715;40.642;-7.920;2024-01-30T07:53:46;18.55;;;12.00;;
60873;SDS011;46715;40.642;-7.920;2024-01-30T07:55:47;17.33;;;11.53;;
60873;SDS011;46715;40.642;-7.920;2024-01-30T07:57:48;16.87;;;11.60;;
60873;SDS011;46715;40.642;-7.920;2024-01-30T07:59:48;17.70;;;12.40;;
60873;SDS011;46715;40.642;-7.920;2024-01-30T08:01:49;22.80;;;12.47;;
60873;SDS011;46715;40.642;-7.920;2024-01-30T08:03:50;22.83;;;12.40;;
60873;SDS011;46715;40.642;-7.920;2024-01-30T08:05:50;15.57;;;10.83;;
60873;SDS011;46715;40.642;-7.920;2024-01-30T08:07:51;21.20;;;13.53;;
60873;SDS011;46715;40.642;-7.920;2024-01-30T08:09:52;23.13;;;13.37;;
60873;SDS011;46715;40.642;-7.920;2024-01-30T08:11:56;23.77;;;12.80;;
60873;SDS011;46715;40.642;-7.920;2024-01-30T08:13:57;24.17;;;13.10;;
60873;SDS011;46715;40.642;-7.920;2024-01-30T08:15:58;20.07;;;13.63;;
60873;SDS011;46715;40.642;-7.920;2024-01-30T08:17:59;16.17;;;12.23;;
60873;SDS011;46715;40.642;-7.920;2024-01-30T08:20:00;20.87;;;12.03;;
60873;SDS011;46715;40.642;-7.920;2024-01-30T08:22:00;16.30;;;11.63;;
60873;SDS011;46715;40.642;-7.920;2024-01-30T08:24:04;17.17;;;11.03;;
60873;SDS011;46715;40.642;-7.920;2024-01-30T08:26:05;20.05;;;12.52;;
60873;SDS011;46715;40.642;-7.920;2024-01-30T08:28:06;18.20;;;11.05;;
60873;SDS011;46715;40.642;-7.920;2024-01-30T08:30:07;14.47;;;11.43;;
60873;SDS011;46715;40.642;-7.920;2024-01-30T08:32:09;22.38;;;17.17;;
60873;SDS011;46715;40.642;-7.920;2024-01-30T08:34:10;15.20;;;10.40;;
60873;SDS011;46715;40.642;-7.920;2024-01-30T08:36:10;13.50;;;9.80;;
60873;SDS011;46715;40.642;-7.920;2024-01-30T08:38:11;15.03;;;9.87;;
60873;SDS011;46715;40.642;-7.920;2024-01-30T08:40:13;18.27;;;11.10;;
60873;SDS011;46715;40.642;-7.920;2024-01-30T08:42:13;15.93;;;9.87;;
60873;SDS011;46715;40.642;-7.920;2024-01-30T08:44:14;12.93;;;9.15;;
60873;SDS011;46715;40.642;-7.920;2024-01-30T08:46:18;12.50;;;8.90;;
60873;SDS011;46715;40.642;-7.920;2024-01-30T08:48:19;12.65;;;8.23;;
60873;SDS011;46715;40.642;-7.920;2024-01-30T08:50:21;13.02;;;7.82;;
60873;SDS011;46715;40.642;-7.920;2024-01-30T08:52:22;11.75;;;8.75;;
60873;SDS011;46715;40.642;-7.920;2024-01-30T08:54:23;15.13;;;9.20;;
60873;SDS011;46715;40.642;-7.920;2024-01-30T08:56:24;20.13;;;16.40;;
60873;SDS011;46715;40.642;-7.920;2024-01-30T08:58:25;14.48;;;8.88;;
60873;SDS011;46715;40.642;-7.920;2024-01-30T09:00:26;14.00;;;8.43;;
60873;SDS011;46715;40.642;-7.920;2024-01-30T09:02:27;14.00;;;8.10;;
60873;SDS011;46715;40.642;-7.920;2024-01-30T09:04:28;14.23;;;8.43;;
60873;SDS011;46715;40.642;-7.920;2024-01-30T09:06:28;11.53;;;7.83;;
60873;SDS011;46715;40.642;-7.920;2024-01-30T09:08:29;13.63;;;7.83;;
60873;SDS011;46715;40.642;-7.920;2024-01-30T09:10:30;14.20;;;7.40;;
60873;SDS011;46715;40.642;-7.920;2024-01-30T09:12:31;12.20;;;7.32;;
60873;SDS011;46715;40.642;-7.920;2024-01-30T09:14:32;11.23;;;7.32;;
60873;SDS011;46715;40.642;-7.920;2024-01-30T09:16:33;9.55;;;6.25;;
60873;SDS011;46715;40.642;-7.920;2024-01-30T09:18:34;14.02;;;7.70;;
60873;SDS011;46715;40.642;-7.920;2024-01-30T09:20:35;14.88;;;9.73;;
60873;SDS011;46715;40.642;-7.920;2024-01-30T09:22:36;14.60;;;9.45;;
60873;SDS011;46715;40.642;-7.920;2024-01-30T09:24:37;13.13;;;8.15;;
60873;SDS011;46715;40.642;-7.920;2024-01-30T09:26:38;13.68;;;8.45;;
60873;SDS011;46715;40.642;-7.920;2024-01-30T09:28:39;13.82;;;8.50;;
60873;SDS011;46715;40.642;-7.920;2024-01-30T09:30:43;20.20;;;8.20;;
60873;SDS011;46715;40.642;-7.920;2024-01-30T09:32:44;11.93;;;6.32;;
60873;SDS011;46715;40.642;-7.920;2024-01-30T09:34:45;15.50;;;6.55;;
60873;SDS011;46715;40.642;-7.920;2024-01-30T09:36:46;11.77;;;6.80;;
60873;SDS011;46715;40.642;-7.920;2024-01-30T09:38:46;9.23;;;6.00;;
60873;SDS011;46715;40.642;-7.920;2024-01-30T09:40:49;10.07;;;6.93;;
60873;SDS011;46715;40.642;-7.920;2024-01-30T09:42:55;15.32;;;6.68;;
60873;SDS011;46715;40.642;-7.920;2024-01-30T09:44:56;8.63;;;6.18;;
60873;SDS011;46715;40.642;-7.920;2024-01-30T09:46:57;15.97;;;7.27;;
60873;SDS011;46715;40.642;-7.920;2024-01-30T09:49:04;11.30;;;7.25;;
60873;SDS011;46715;40.642;-7.920;2024-01-30T09:51:08;13.95;;;7.53;;
60873;SDS011;46715;40.642;-7.920;2024-01-30T09:53:10;13.43;;;6.93;;
60873;SDS011;46715;40.642;-7.920;2024-01-30T09:55:13;13.68;;;7.47;;
60873;SDS011;46715;40.642;-7.920;2024-01-30T09:57:14;17.67;;;8.13;;
60873;SDS011;46715;40.642;-7.920;2024-01-30T09:59:15;15.57;;;8.80;;
60873;SDS011;46715;40.642;-7.920;2024-01-30T10:01:16;16.33;;;8.45;;
60873;SDS011;46715;40.642;-7.920;2024-01-30T10:03:19;16.77;;;9.25;;
60873;SDS011;46715;40.642;-7.920;2024-01-30T10:05:20;23.40;;;10.57;;
60873;SDS011;46715;40.642;-7.920;2024-01-30T10:07:26;16.65;;;9.25;;
60873;SDS011;46715;40.642;-7.920;2024-01-30T10:09:27;16.95;;;10.30;;
60873;SDS011;46715;40.642;-7.920;2024-01-30T10:11:28;14.43;;;9.30;;
60873;SDS011;46715;40.642;-7.920;2024-01-30T10:13:29;17.48;;;9.20;;
60873;SDS011;46715;40.642;-7.920;2024-01-30T10:15:29;14.35;;;8.27;;
60873;SDS011;46715;40.642;-7.920;2024-01-30T10:17:30;18.40;;;9.20;;
60873;SDS011;46715;40.642;-7.920;2024-01-30T10:19:31;18.30;;;9.80;;
60873;SDS011;46715;40.642;-7.920;2024-01-30T10:21:32;41.07;;;13.23;;
60873;SDS011;46715;40.642;-7.920;2024-01-30T10:23:33;16.50;;;8.33;;
60873;SDS011;46715;40.642;-7.920;2024-01-30T10:25:35;16.10;;;9.30;;
60873;SDS011;46715;40.642;-7.920;2024-01-30T10:27:42;16.02;;;9.45;;
60873;SDS011;46715;40.642;-7.920;2024-01-30T10:29:43;17.30;;;9.05;;
60873;SDS011;46715;40.642;-7.920;2024-01-30T10:31:44;19.20;;;10.70;;
60873;SDS011;46715;40.642;-7.920;2024-01-30T10:34:05;24.42;;;12.70;;
60873;SDS011;46715;40.642;-7.920;2024-01-30T10:36:07;27.48;;;13.50;;
60873;SDS011;46715;40.642;-7.920;2024-01-30T10:38:08;26.65;;;15.38;;
60873;SDS011;46715;40.642;-7.920;2024-01-30T10:40:14;25.55;;;14.35;;
60873;SDS011;46715;40.642;-7.920;2024-01-30T10:42:18;28.50;;;15.73;;
60873;SDS011;46715;40.642;-7.920;2024-01-30T10:44:19;21.02;;;11.25;;
60873;SDS011;46715;40.642;-7.920;2024-01-30T10:46:22;23.20;;;14.98;;
60873;SDS011;46715;40.642;-7.920;2024-01-30T10:48:30;18.00;;;9.52;;
60873;SDS011;46715;40.642;-7.920;2024-01-30T10:50:35;15.27;;;9.38;;
60873;SDS011;46715;40.642;-7.920;2024-01-30T10:52:37;14.68;;;8.52;;
60873;SDS011;46715;40.642;-7.920;2024-01-30T10:54:39;15.60;;;8.75;;
60873;SDS011;46715;40.642;-7.920;2024-01-30T10:56:43;18.30;;;8.77;;
60873;SDS011;46715;40.642;-7.920;2024-01-30T10:58:44;16.88;;;8.27;;
60873;SDS011;46715;40.642;-7.920;2024-01-30T11:00:45;12.55;;;8.43;;
60873;SDS011;46715;40.642;-7.920;2024-01-30T11:02:47;11.55;;;8.15;;
60873;SDS011;46715;40.642;-7.920;2024-01-30T11:04:48;15.18;;;7.68;;
60873;SDS011;46715;40.642;-7.920;2024-01-30T11:06:49;18.02;;;9.50;;
60873;SDS011;46715;40.642;-7.920;2024-01-30T11:09:03;17.58;;;7.70;;
60873;SDS011;46715;40.642;-7.920;2024-01-30T11:11:09;15.23;;;8.98;;
60873;SDS011;46715;40.642;-7.920;2024-01-30T11:13:13;19.83;;;10.65;;
60873;SDS011;46715;40.642;-7.920;2024-01-30T11:15:14;21.52;;;11.95;;
60873;SDS011;46715;40.642;-7.920;2024-01-30T11:17:16;29.70;;;12.23;;
60873;SDS011;46715;40.642;-7.920;2024-01-30T11:19:27;21.27;;;11.15;;
60873;SDS011;46715;40.642;-7.920;2024-01-30T11:21:30;21.45;;;11.82;;
60873;SDS011;46715;40.642;-7.920;2024-01-30T11:23:33;18.90;;;10.27;;
60873;SDS011;46715;40.642;-7.920;2024-01-30T11:25:34;15.18;;;6.93;;
60873;SDS011;46715;40.642;-7.920;2024-01-30T11:27:36;15.57;;;8.18;;
60873;SDS011;46715;40.642;-7.920;2024-01-30T11:29:38;18.95;;;7.45;;
60873;SDS011;46715;40.642;-7.920;2024-01-30T11:31:51;12.07;;;6.70;;
60873;SDS011;46715;40.642;-7.920;2024-01-30T11:33:53;13.50;;;6.68;;
60873;SDS011;46715;40.642;-7.920;2024-01-30T11:35:54;12.30;;;7.22;;
60873;SDS011;46715;40.642;-7.920;2024-01-30T11:37:55;22.90;;;11.57;;
60873;SDS011;46715;40.642;-7.920;2024-01-30T11:39:58;15.40;;;8.52;;
60873;SDS011;46715;40.642;-7.920;2024-01-30T11:41:59;18.83;;;9.15;;
60873;SDS011;46715;40.642;-7.920;2024-01-30T11:44:03;17.80;;;8.50;;